Time;durP1;ratioP1;P1;durP2;ratioP2;P2;SDS_P1;SDS_P2;PMS_P1;PMS_P2;Temp;Humidity;BMP_temperature;BMP_pressure;BME280_temperature;BME280_humidity;BME280_pressure;Samples;Min_cycle;Max_cycle;Signal;HPM_P1;HPM_P2
2023/01/16 00:02:05;;;;;;;4.35;2.97;;;;;;;1.61;57.51;99543.59;5057978;28;20032;-67
2023/01/16 00:04:33;;;;;;;4.80;2.20;;;;;;;2.19;56.21;99544.69;5058675;28;20040;-66
2023/01/16 00:07:01;;;;;;;4.65;3.15;;;;;;;2.42;55.32;99536.38;5061940;28;20393;-68
2023/01/16 00:09:29;;;;;;;7.57;3.45;;;;;;;2.18;55.84;99540.44;5058820;28;20564;-67
2023/01/16 00:11:54;;;;;;;9.77;3.30;;;;;;;1.84;56.81;99540.44;5062892;28;20027;-66
2023/01/16 00:14:20;;;;;;;7.50;4.22;;;;;;;1.70;57.33;99536.50;5077930;28;20409;-67
2023/01/16 00:16:47;;;;;;;3.83;2.88;;;;;;;2.04;56.00;99532.22;5064239;28;20276;-67
2023/01/16 00:19:13;;;;;;;5.95;2.75;;;;;;;1.94;56.39;99526.47;5051409;28;20486;-67
2023/01/16 00:21:38;;;;;;;6.18;3.08;;;;;;;1.63;57.48;99531.53;5061764;28;20088;-67
2023/01/16 00:24:06;;;;;;;8.27;2.88;;;;;;;1.76;56.98;99521.78;5070975;28;20180;-66
2023/01/16 00:26:31;;;;;;;9.18;2.72;;;;;;;2.10;55.64;99516.59;5058307;28;20135;-68
2023/01/16 00:29:02;;;;;;;6.47;2.92;;;;;;;1.73;56.57;99512.41;5045919;28;20514;-70
2023/01/16 00:31:27;;;;;;;5.07;2.28;;;;;;;0.91;58.26;99510.84;5062510;28;20089;-69
2023/01/16 00:33:53;;;;;;;3.08;2.45;;;;;;;1.34;57.44;99509.88;5050951;27;20089;-69
2023/01/16 00:36:19;;;;;;;2.25;1.83;;;;;;;1.50;56.88;99506.06;5075544;27;20028;-69
2023/01/16 00:38:46;;;;;;;4.43;2.28;;;;;;;2.08;55.01;99508.06;5058626;28;20524;-68
2023/01/16 00:41:14;;;;;;;5.53;2.42;;;;;;;1.86;55.86;99505.19;5060356;28;20560;-69
2023/01/16 00:43:39;;;;;;;3.47;2.30;;;;;;;1.91;55.70;99503.34;5053383;28;20040;-70
2023/01/16 00:46:05;;;;;;;4.50;2.10;;;;;;;1.97;55.49;99499.75;5059193;28;20530;-68
2023/01/16 00:48:33;;;;;;;6.35;2.33;;;;;;;1.63;56.32;99495.47;5062294;28;20090;-69
2023/01/16 00:50:58;;;;;;;3.85;2.10;;;;;;;1.08;58.03;99503.63;5064359;28;20027;-68
2023/01/16 00:53:26;;;;;;;5.70;1.77;;;;;;;1.83;55.61;99493.22;5046148;28;20048;-68
2023/01/16 00:55:52;;;;;;;6.75;2.42;;;;;;;1.92;55.12;99492.16;5060840;28;20059;-68
2023/01/16 00:58:17;;;;;;;4.82;1.92;;;;;;;1.54;55.88;99485.41;5056805;27;20136;-68
2023/01/16 01:00:45;;;;;;;3.53;1.92;;;;;;;1.99;55.17;99482.53;5059666;28;20059;-69
2023/01/16 01:03:11;;;;;;;4.07;1.65;;;;;;;2.01;55.10;99484.16;5039283;27;20478;-69
2023/01/16 01:05:39;;;;;;;2.35;1.60;;;;;;;1.72;55.32;99477.22;5066412;27;20035;-68
2023/01/16 01:08:05;;;;;;;4.30;2.35;;;;;;;1.71;56.16;99481.53;5041225;28;20040;-67
2023/01/16 01:10:38;;;;;;;7.00;1.95;;;;;;;2.10;55.10;99477.94;5065873;28;20255;-67
2023/01/16 01:13:06;;;;;;;2.58;1.45;;;;;;;2.23;55.13;99466.41;5057504;28;20040;-73
2023/01/16 01:15:35;;;;;;;2.38;1.77;;;;;;;2.53;54.11;99464.69;5061695;28;20507;-73
2023/01/16 01:18:00;;;;;;;1.77;1.45;;;;;;;2.30;54.64;99462.75;5062683;28;20040;-74
2023/01/16 01:20:26;;;;;;;8.80;2.17;;;;;;;1.86;55.89;99462.25;5050462;28;20599;-76
2023/01/16 01:22:54;;;;;;;4.25;1.30;;;;;;;2.14;54.77;99454.59;5057660;28;20423;-74
2023/01/16 01:25:22;;;;;;;2.55;1.58;;;;;;;2.23;54.80;99452.66;5059650;28;21436;-74
2023/01/16 01:27:49;;;;;;;6.93;1.50;;;;;;;2.42;54.32;99451.25;5050320;28;20040;-74
2023/01/16 01:30:17;;;;;;;1.80;1.52;;;;;;;1.97;55.85;99454.22;5059709;28;20032;-74
2023/01/16 01:32:42;;;;;;;8.48;1.75;;;;;;;2.71;53.87;99450.41;5059101;28;20539;-74
2023/01/16 01:35:08;;;;;;;3.53;1.20;;;;;;;2.63;54.14;99439.44;5062050;28;20296;-66
2023/01/16 01:37:34;;;;;;;4.32;1.65;;;;;;;2.38;54.56;99434.19;5060946;28;20048;-66
2023/01/16 01:40:04;;;;;;;2.55;1.30;;;;;;;2.58;54.14;99431.00;5064394;28;20027;-65
2023/01/16 01:42:42;;;;;;;5.22;1.38;;;;;;;2.88;53.72;99428.38;5054979;28;20063;-66
2023/01/16 01:45:39;;;;;;;5.15;1.27;;;;;;;2.78;54.17;99422.66;5060174;28;20059;-66
2023/01/16 01:48:13;;;;;;;3.80;1.25;;;;;;;2.85;53.81;99424.16;5060587;28;20552;-74
2023/01/16 01:50:47;;;;;;;4.80;1.35;;;;;;;1.98;55.44;99419.00;5055281;28;20119;-73
2023/01/16 01:53:22;;;;;;;4.15;0.88;;;;;;;2.35;54.91;99417.06;5057674;28;20128;-74
2023/01/16 01:55:52;;;;;;;2.25;0.93;;;;;;;2.28;54.68;99412.97;5053118;28;20095;-73
2023/01/16 01:58:22;;;;;;;3.38;1.27;;;;;;;2.76;53.58;99403.81;5043422;28;20232;-74
2023/01/16 02:00:55;;;;;;;5.25;1.48;;;;;;;2.77;53.11;99406.31;5061929;28;20028;-69
2023/01/16 02:03:35;;;;;;;5.57;1.17;;;;;;;2.99;52.82;99400.50;5057522;28;20643;-67
2023/01/16 02:06:05;;;;;;;4.30;1.42;;;;;;;3.01;52.67;99388.38;5061131;28;20492;-67
2023/01/16 02:08:33;;;;;;;4.10;0.70;;;;;;;2.71;53.34;99380.72;5061158;28;20093;-66
2023/01/16 02:11:25;;;;;;;2.63;0.95;;;;;;;2.84;52.99;99381.16;5070381;28;20031;-71
2023/01/16 02:14:06;;;;;;;4.18;0.80;;;;;;;2.78;53.29;99376.22;5067025;28;20044;-71
2023/01/16 02:19:41;;;;;;;4.50;0.95;;;;;;;2.82;53.24;99372.63;5059001;27;20138;-67
2023/01/16 02:22:27;;;;;;;4.20;0.68;;;;;;;2.64;53.58;99358.56;5062249;28;20447;-69
2023/01/16 02:25:18;;;;;;;5.40;1.02;;;;;;;2.70;53.27;99360.97;5063827;28;20142;-68
2023/01/16 02:28:05;;;;;;;2.80;0.75;;;;;;;2.81;53.12;99349.47;5061786;28;20155;-69
2023/01/16 02:31:02;;;;;;;3.45;0.60;;;;;;;2.56;54.01;99339.94;5045886;28;20043;-69
2023/01/16 02:33:55;;;;;;;2.05;0.95;;;;;;;2.69;53.76;99343.81;5053964;27;20121;-69
2023/01/16 02:36:59;;;;;;;3.05;0.65;;;;;;;2.43;54.22;99343.78;5060858;28;20044;-72
2023/01/16 02:40:24;;;;;;;1.60;0.43;;;;;;;2.79;53.28;99330.63;5049907;28;20052;-69
2023/01/16 02:43:08;;;;;;;2.53;0.60;;;;;;;2.51;54.15;99323.75;5032630;28;20082;-71
2023/01/16 02:45:44;;;;;;;6.60;0.85;;;;;;;2.82;53.01;99317.59;5063382;28;22130;-72
2023/01/16 02:48:13;;;;;;;3.70;0.45;;;;;;;2.15;55.00;99313.66;5064754;28;20040;-71
2023/01/16 02:50:57;;;;;;;7.22;0.80;;;;;;;2.10;55.26;99307.81;5054610;28;20040;-72
2023/01/16 02:53:28;;;;;;;4.97;0.38;;;;;;;2.63;53.61;99300.16;5054813;28;20044;-72
2023/01/16 02:56:08;;;;;;;3.17;0.47;;;;;;;2.66;53.41;99300.03;5060120;28;20043;-72
2023/01/16 02:58:45;;;;;;;1.65;0.30;;;;;;;2.65;53.13;99292.38;5056449;28;20167;-74
2023/01/16 03:01:11;;;;;;;6.03;0.50;;;;;;;2.79;52.82;99286.75;5063196;28;20596;-73
2023/01/16 03:03:46;;;;;;;2.45;0.40;;;;;;;2.43;53.73;99281.91;5044268;27;20460;-73
2023/01/16 03:06:11;;;;;;;0.90;0.30;;;;;;;2.61;53.12;99270.16;5072037;28;20055;-72
2023/01/16 03:08:59;;;;;;;4.57;0.77;;;;;;;2.17;53.92;99265.50;5046908;28;20280;-72
2023/01/16 03:11:29;;;;;;;0.88;0.20;;;;;;;2.34;53.90;99263.25;5061334;28;20028;-72
2023/01/16 03:14:18;;;;;;;5.97;0.57;;;;;;;2.25;53.58;99262.69;5057655;28;20952;-71
2023/01/16 03:16:54;;;;;;;3.03;0.55;;;;;;;2.18;53.57;99262.03;5061190;28;20314;-73
2023/01/16 03:19:39;;;;;;;3.00;0.80;;;;;;;2.17;53.66;99250.03;5046645;28;20048;-71
2023/01/16 03:22:16;;;;;;;3.00;0.40;;;;;;;2.10;53.50;99253.69;5057043;28;20034;-71
2023/01/16 03:24:47;;;;;;;6.75;0.63;;;;;;;1.93;54.29;99252.47;5061610;28;20036;-71
2023/01/16 03:27:29;;;;;;;3.10;0.30;;;;;;;1.98;53.90;99254.09;5065764;27;20044;-70
2023/01/16 03:30:41;;;;;;;3.60;0.40;;;;;;;1.96;53.89;99250.72;5060080;28;20024;-67
2023/01/16 03:33:17;;;;;;;1.27;0.40;;;;;;;2.03;54.40;99242.72;5041868;28;20082;-67
2023/01/16 03:35:52;;;;;;;0.80;0.22;;;;;;;2.10;54.28;99233.06;5058515;28;20036;-67
2023/01/16 03:38:21;;;;;;;2.45;0.40;;;;;;;2.21;53.97;99231.00;5063224;28;20390;-67
2023/01/16 03:40:51;;;;;;;3.92;0.50;;;;;;;2.22;54.08;99234.41;5060127;28;20479;-67
2023/01/16 03:43:35;;;;;;;1.77;1.00;;;;;;;2.27;53.92;99229.97;5059673;28;20717;-66
2023/01/16 03:46:03;;;;;;;4.30;0.70;;;;;;;2.35;53.68;99225.41;5054685;28;20031;-68
2023/01/16 03:48:38;;;;;;;3.45;0.50;;;;;;;2.14;54.07;99225.19;5060022;28;20052;-67
2023/01/16 03:51:07;;;;;;;3.70;0.30;;;;;;;2.48;53.70;99223.28;5060100;28;20041;-67
2023/01/16 03:53:41;;;;;;;2.42;0.30;;;;;;;2.56;53.35;99213.56;5060407;27;20035;-66
2023/01/16 03:56:12;;;;;;;2.97;0.40;;;;;;;2.57;53.40;99208.31;5063122;28;20062;-67
2023/01/16 03:58:44;;;;;;;4.35;0.80;;;;;;;2.53;53.50;99205.91;5062575;28;20092;-66
2023/01/16 04:01:34;;;;;;;1.35;0.43;;;;;;;2.62;53.54;99200.44;5077659;28;20067;-68
2023/01/16 04:04:12;;;;;;;3.25;0.40;;;;;;;2.54;53.68;99198.13;5063628;28;20068;-64
2023/01/16 04:06:48;;;;;;;3.95;0.73;;;;;;;2.46;54.31;99196.69;5058550;28;20393;-66
2023/01/16 04:09:21;;;;;;;3.30;0.40;;;;;;;2.52;54.08;99186.19;5060342;28;20040;-65
2023/01/16 04:11:50;;;;;;;3.78;0.30;;;;;;;2.52;54.23;99183.59;5059680;28;20648;-65
2023/01/16 04:14:21;;;;;;;2.58;0.38;;;;;;;2.49;54.63;99186.28;5059412;28;20305;-66
2023/01/16 04:16:47;;;;;;;1.45;0.60;;;;;;;2.51;54.46;99181.91;5059771;28;20544;-66
2023/01/16 04:19:15;;;;;;;1.35;0.35;;;;;;;2.52;54.32;99184.44;5064335;28;20070;-65
2023/01/16 04:21:48;;;;;;;4.57;0.75;;;;;;;2.46;54.83;99176.06;5056895;28;20310;-66
2023/01/16 04:24:15;;;;;;;1.20;0.60;;;;;;;2.28;55.27;99175.75;5057986;28;20265;-67
2023/01/16 04:26:40;;;;;;;4.80;0.30;;;;;;;2.48;54.73;99175.09;5061248;28;20490;-67
2023/01/16 04:29:06;;;;;;;4.00;0.30;;;;;;;2.40;55.20;99168.50;5062315;28;20041;-67
2023/01/16 04:31:31;;;;;;;4.43;0.95;;;;;;;2.35;55.31;99166.97;5058717;28;20078;-66
2023/01/16 04:33:57;;;;;;;2.13;1.10;;;;;;;2.46;55.01;99164.00;5055818;28;20471;-67
2023/01/16 04:36:22;;;;;;;4.88;0.70;;;;;;;2.46;54.68;99161.41;5061919;28;20464;-67
2023/01/16 04:38:48;;;;;;;1.77;0.40;;;;;;;2.51;54.75;99156.97;5045857;28;20446;-67
2023/01/16 04:41:35;;;;;;;2.47;0.65;;;;;;;2.46;54.86;99158.00;5058686;28;20028;-67
2023/01/16 04:44:07;;;;;;;1.65;0.30;;;;;;;2.11;56.03;99157.47;5054007;27;20572;-67
2023/01/16 04:46:33;;;;;;;1.13;0.43;;;;;;;2.44;55.12;99149.47;5058118;28;20043;-66
2023/01/16 04:48:58;;;;;;;7.57;0.47;;;;;;;2.43;54.71;99132.34;5055187;28;20123;-66
2023/01/16 04:51:28;;;;;;;3.75;0.65;;;;;;;2.43;54.99;99133.16;5062067;28;20056;-68
2023/01/16 04:53:56;;;;;;;3.58;0.55;;;;;;;2.41;54.74;99128.97;5062130;28;20299;-69
2023/01/16 04:56:24;;;;;;;2.90;0.80;;;;;;;2.50;54.39;99123.47;5094327;27;20031;-68
2023/01/16 04:58:57;;;;;;;1.70;0.57;;;;;;;2.60;54.42;99124.88;5059712;28;20052;-69
2023/01/16 05:01:23;;;;;;;8.27;0.93;;;;;;;2.11;55.36;99111.06;5064283;28;20042;-69
2023/01/16 05:03:51;;;;;;;1.77;0.63;;;;;;;2.43;54.69;99122.03;5053915;28;20490;-74
2023/01/16 05:06:17;;;;;;;3.15;1.00;;;;;;;2.44;54.59;99118.53;5063273;28;20544;-74
2023/01/16 05:08:45;;;;;;;3.50;1.10;;;;;;;2.28;54.85;99118.22;5065647;28;20062;-74
2023/01/16 05:11:15;;;;;;;6.18;1.73;;;;;;;2.37;54.33;99107.59;5066065;28;20033;-74
2023/01/16 05:13:40;;;;;;;6.10;1.38;;;;;;;2.51;54.21;99107.97;5045036;28;20045;-75
2023/01/16 05:16:06;;;;;;;11.25;2.40;;;;;;;2.53;54.58;99105.31;5058787;28;20225;-69
2023/01/16 05:18:31;;;;;;;6.00;1.85;;;;;;;2.33;54.75;99096.56;5058406;28;20055;-69
2023/01/16 05:21:00;;;;;;;4.43;1.20;;;;;;;2.40;54.88;99091.16;5059607;28;20738;-73
2023/01/16 05:23:28;;;;;;;4.85;1.67;;;;;;;2.32;54.95;99094.84;5056575;28;20052;-73
2023/01/16 05:26:02;;;;;;;6.57;1.70;;;;;;;2.51;54.35;99087.34;5063179;28;20035;-72
2023/01/16 05:28:27;;;;;;;4.93;1.70;;;;;;;2.40;54.32;99086.00;5063269;27;20038;-67
2023/01/16 05:30:56;;;;;;;3.97;1.35;;;;;;;2.38;54.33;99080.91;5060870;28;20233;-64
2023/01/16 05:33:22;;;;;;;7.20;1.77;;;;;;;2.42;54.29;99076.47;5048307;28;20044;-72
2023/01/16 05:35:48;;;;;;;3.47;1.70;;;;;;;2.48;53.92;99079.69;5059365;28;20036;-72
2023/01/16 05:38:14;;;;;;;4.70;2.05;;;;;;;2.44;53.59;99079.84;5051253;28;20044;-71
2023/01/16 05:40:40;;;;;;;6.35;2.90;;;;;;;2.16;54.95;99075.66;5066972;28;20042;-71
2023/01/16 05:43:05;;;;;;;7.43;2.10;;;;;;;2.16;54.66;99073.09;5063315;28;20048;-70
2023/01/16 05:45:33;;;;;;;2.13;1.23;;;;;;;2.33;54.63;99070.78;5061711;28;20036;-70
2023/01/16 05:48:01;;;;;;;6.70;3.40;;;;;;;2.26;54.52;99061.53;5053653;28;20033;-72
2023/01/16 05:50:27;;;;;;;7.13;2.15;;;;;;;2.41;54.27;99061.91;5081243;28;20104;-70
2023/01/16 05:52:54;;;;;;;2.42;1.60;;;;;;;2.26;54.61;99053.81;5076465;27;20493;-69
2023/01/16 05:55:24;;;;;;;3.88;1.73;;;;;;;2.46;54.38;99047.13;5067638;27;20032;-71
2023/01/16 05:57:49;;;;;;;3.33;1.85;;;;;;;2.33;54.58;99050.16;5066934;28;20572;-70
2023/01/16 06:00:16;;;;;;;4.85;1.90;;;;;;;2.37;54.58;99037.13;5068821;28;20038;-71
2023/01/16 06:02:41;;;;;;;5.32;2.17;;;;;;;2.47;54.40;99030.75;5066350;28;20301;-72
2023/01/16 06:05:08;;;;;;;4.22;2.38;;;;;;;2.39;54.48;99022.44;5070413;28;20024;-68
2023/01/16 06:07:37;;;;;;;3.95;2.38;;;;;;;2.41;54.55;99018.09;5061084;27;20657;-68
2023/01/16 06:10:04;;;;;;;3.15;2.03;;;;;;;2.37;54.43;99013.94;5064511;28;20107;-69
2023/01/16 06:12:31;;;;;;;4.07;2.22;;;;;;;2.41;54.63;98998.28;5065667;28;20220;-70
2023/01/16 06:14:59;;;;;;;5.88;2.78;;;;;;;2.56;54.03;99014.97;5058048;28;20032;-71
2023/01/16 06:17:24;;;;;;;3.92;2.20;;;;;;;2.48;54.10;99007.47;5060784;28;20143;-72
2023/01/16 06:19:55;;;;;;;2.97;2.10;;;;;;;2.40;54.62;99008.66;5060859;28;20446;-72
2023/01/16 06:22:23;;;;;;;2.92;2.42;;;;;;;2.41;54.50;99000.03;5062932;27;20044;-76
2023/01/16 06:24:48;;;;;;;2.70;1.80;;;;;;;2.43;54.80;98993.09;5059257;28;20493;-75
2023/01/16 06:27:14;;;;;;;3.28;2.47;;;;;;;2.55;54.05;98997.78;5061382;27;20171;-74
2023/01/16 06:29:43;;;;;;;4.15;2.42;;;;;;;2.04;55.22;98994.47;5074076;27;20437;-75
2023/01/16 06:32:09;;;;;;;3.97;2.63;;;;;;;2.46;54.44;98993.81;5040691;28;20036;-76
2023/01/16 06:34:34;;;;;;;3.92;2.75;;;;;;;2.54;54.47;98991.78;5067666;28;20154;-68
2023/01/16 06:37:00;;;;;;;3.53;2.53;;;;;;;2.38;54.81;98976.94;5049297;27;20027;-67
2023/01/16 06:39:25;;;;;;;3.30;2.20;;;;;;;2.50;54.18;98968.75;5064536;28;20044;-67
2023/01/16 06:41:51;;;;;;;3.85;2.47;;;;;;;2.13;55.27;98965.78;5060347;28;20241;-67
2023/01/16 06:44:18;;;;;;;5.93;2.90;;;;;;;2.39;54.68;98966.56;5064663;28;20161;-68
2023/01/16 06:46:44;;;;;;;8.40;3.00;;;;;;;2.55;54.13;98959.09;5066519;28;20059;-68
2023/01/16 06:49:10;;;;;;;3.53;1.80;;;;;;;2.44;54.24;98966.41;5060531;28;20445;-67
2023/01/16 06:51:36;;;;;;;7.40;2.83;;;;;;;2.57;53.95;98954.72;5056048;28;20881;-67
2023/01/16 06:54:04;;;;;;;4.60;2.80;;;;;;;2.63;53.80;98953.66;5059375;28;20170;-68
2023/01/16 06:56:29;;;;;;;4.93;2.50;;;;;;;2.52;54.16;98943.75;5056261;28;20076;-66
2023/01/16 06:58:55;;;;;;;3.83;2.35;;;;;;;2.45;54.33;98956.03;5057871;27;20071;-66
2023/01/16 07:01:21;;;;;;;5.45;3.13;;;;;;;2.55;54.24;98952.22;5064146;28;21243;-67
2023/01/16 07:03:46;;;;;;;4.53;2.53;;;;;;;2.58;53.95;98951.25;5058053;28;20036;-67
2023/01/16 07:06:14;;;;;;;5.18;2.75;;;;;;;2.41;54.35;98945.88;5065631;28;20039;-66
2023/01/16 07:08:43;;;;;;;4.57;2.95;;;;;;;2.44;54.44;98944.03;5057491;28;20048;-69
2023/01/16 07:11:08;;;;;;;7.13;2.85;;;;;;;2.52;54.32;98936.00;5056386;28;20166;-69
2023/01/16 07:13:39;;;;;;;4.43;2.83;;;;;;;2.13;55.33;98936.56;5058304;28;20093;-67
2023/01/16 07:24:23;;;;;;;5.18;2.90;;;;;;;2.23;54.47;98919.88;5058247;28;20043;-67
2023/01/16 07:26:57;;;;;;;4.25;2.42;;;;;;;2.42;54.00;98924.34;5043412;28;20350;-68
2023/01/16 07:29:29;;;;;;;3.95;2.42;;;;;;;2.38;54.18;98917.63;5061180;28;20036;-68
2023/01/16 07:31:59;;;;;;;7.80;3.38;;;;;;;2.53;53.74;98909.31;5048703;28;20049;-68
2023/01/16 07:34:25;;;;;;;8.85;2.92;;;;;;;2.55;53.95;98920.41;5012560;28;1288683;-69
2023/01/16 07:36:53;;;;;;;4.00;2.65;;;;;;;1.97;55.52;98918.25;5059299;28;20036;-67
2023/01/16 07:39:21;;;;;;;9.85;2.65;;;;;;;1.99;55.16;98924.19;5056799;28;20455;-68
2023/01/16 07:41:48;;;;;;;10.38;2.85;;;;;;;2.20;54.83;98921.72;5066107;28;20127;-68
2023/01/16 07:44:15;;;;;;;5.22;3.10;;;;;;;2.02;55.11;98925.81;5048295;28;20067;-69
2023/01/16 07:46:41;;;;;;;5.57;3.30;;;;;;;2.31;54.47;98917.88;5054821;28;20664;-66
2023/01/16 07:49:06;;;;;;;6.22;2.78;;;;;;;2.34;54.44;98909.19;5066060;27;20050;-66
2023/01/16 07:51:40;;;;;;;5.75;2.85;;;;;;;2.45;54.19;98909.63;5057508;28;20040;-67
2023/01/16 07:54:07;;;;;;;7.78;3.38;;;;;;;2.51;53.98;98900.78;5052702;28;20047;-67
2023/01/16 07:56:38;;;;;;;6.63;4.25;;;;;;;2.53;53.76;98902.44;5073717;27;20036;-67
2023/01/16 07:59:07;;;;;;;4.90;3.35;;;;;;;2.46;53.79;98888.06;5060903;28;20051;-67
2023/01/16 08:01:34;;;;;;;5.53;4.18;;;;;;;2.36;54.06;98891.91;5059118;28;20084;-66
2023/01/16 08:04:09;;;;;;;7.68;3.33;;;;;;;2.06;54.22;98886.97;5060218;28;20036;-66
2023/01/16 08:06:36;;;;;;;6.28;3.38;;;;;;;2.22;54.39;98874.41;5057480;28;20115;-67
2023/01/16 08:09:01;;;;;;;7.97;2.67;;;;;;;2.26;54.03;98870.78;5059014;28;20106;-68
2023/01/16 08:11:38;;;;;;;6.25;3.28;;;;;;;2.29;53.88;98857.78;5076998;27;20666;-66
2023/01/16 08:14:06;;;;;;;8.65;3.78;;;;;;;2.25;53.99;98848.50;5063334;28;20047;-67
2023/01/16 08:16:32;;;;;;;6.10;3.35;;;;;;;2.23;54.39;98850.28;5059146;28;20280;-66
2023/01/16 08:19:01;;;;;;;6.20;3.85;;;;;;;2.11;54.65;98848.19;5058167;28;20106;-67
2023/01/16 08:21:29;;;;;;;9.00;4.63;;;;;;;2.06;54.86;98847.50;5059098;28;20484;-66
2023/01/16 08:23:55;;;;;;;6.43;3.72;;;;;;;2.08;54.66;98837.97;5059662;28;20129;-68
2023/01/16 08:26:20;;;;;;;10.57;4.82;;;;;;;2.15;54.36;98834.25;5061570;28;20131;-67
2023/01/16 08:28:46;;;;;;;10.73;3.50;;;;;;;2.22;54.49;98828.00;5062132;27;20040;-67
2023/01/16 08:31:13;;;;;;;7.05;3.90;;;;;;;1.98;54.61;98823.78;5040827;28;20397;-67
2023/01/16 08:33:45;;;;;;;6.38;3.80;;;;;;;2.06;54.77;98819.16;5059310;28;20367;-70
2023/01/16 08:36:15;;;;;;;8.15;3.95;;;;;;;2.24;53.93;98813.31;5072939;28;20062;-67
2023/01/16 08:38:45;;;;;;;7.13;2.92;;;;;;;2.28;53.70;98812.28;5066449;28;20422;-68
2023/01/16 08:52:11;;;;;;;10.57;3.05;;;;;;;2.12;54.51;98782.84;5059055;28;20032;-67
2023/01/16 08:54:37;;;;;;;5.03;2.78;;;;;;;1.77;55.14;98785.00;5054843;28;20039;-67
2023/01/16 08:57:03;;;;;;;6.90;2.80;;;;;;;2.04;54.51;98784.88;5057178;28;20068;-68
2023/01/16 08:59:33;;;;;;;7.22;3.08;;;;;;;2.10;54.50;98779.47;5057537;28;20087;-67
2023/01/16 09:02:03;;;;;;;7.25;2.55;;;;;;;2.03;54.88;98785.78;5058593;28;20496;-67
2023/01/16 09:04:29;;;;;;;4.18;3.25;;;;;;;2.04;54.92;98777.13;5055697;28;20039;-69
2023/01/16 09:06:56;;;;;;;8.65;3.45;;;;;;;1.75;55.79;98775.66;5047619;28;20038;-66
2023/01/16 09:09:25;;;;;;;3.30;2.20;;;;;;;1.59;56.08;98780.53;5057654;28;20392;-69
2023/01/16 09:14:43;;;;;;;6.28;3.95;;;;;;;1.69;55.99;98763.88;5061648;28;20255;-68
2023/01/16 09:17:09;;;;;;;9.15;3.25;;;;;;;1.92;55.47;98750.09;5057506;28;20368;-68
2023/01/16 09:19:35;;;;;;;6.22;3.08;;;;;;;1.75;55.89;98753.31;5058557;28;20059;-69
2023/01/16 09:22:05;;;;;;;7.50;3.70;;;;;;;1.80;55.80;98756.56;5057821;28;20061;-68
2023/01/16 09:24:32;;;;;;;8.48;3.92;;;;;;;1.64;56.36;98745.16;5058863;28;20119;-68
2023/01/16 09:26:58;;;;;;;6.90;4.82;;;;;;;1.91;55.98;98741.56;5056366;28;20493;-68
2023/01/16 09:29:28;;;;;;;12.35;4.28;;;;;;;1.72;56.23;98743.13;5054754;28;20036;-69
2023/01/16 09:31:54;;;;;;;5.63;3.22;;;;;;;1.98;55.57;98743.91;5068500;28;20030;-68
2023/01/16 09:34:19;;;;;;;4.10;3.00;;;;;;;2.19;54.90;98743.03;5057344;28;20302;-68
2023/01/16 09:36:52;;;;;;;8.30;2.78;;;;;;;2.19;55.00;98735.31;5059403;28;20055;-68
2023/01/16 09:39:17;;;;;;;5.47;3.30;;;;;;;2.42;54.44;98736.13;5052039;28;20468;-68
2023/01/16 09:44:50;;;;;;;8.55;3.15;;;;;;;2.63;53.26;98712.03;5051090;28;20137;-68
2023/01/16 09:47:20;;;;;;;5.65;2.80;;;;;;;2.61;53.52;98703.53;5045019;28;20488;-68
2023/01/16 09:49:51;;;;;;;3.83;2.55;;;;;;;3.18;52.52;98696.78;5056949;28;20028;-68
2023/01/16 09:58:48;;;;;;;4.45;1.58;;;;;;;2.74;51.98;98676.31;5024115;28;20052;-68
2023/01/16 10:01:23;;;;;;;3.17;1.73;;;;;;;3.04;51.81;98670.72;5054977;28;20169;-68
2023/01/16 10:03:57;;;;;;;3.17;1.77;;;;;;;3.17;51.25;98671.84;5049223;28;20040;-67
2023/01/16 10:06:39;;;;;;;3.95;1.83;;;;;;;2.98;51.67;98661.53;5055096;28;20047;-69
2023/01/16 10:09:18;;;;;;;6.25;1.67;;;;;;;2.88;51.79;98660.25;5051869;28;20074;-69
2023/01/16 10:11:56;;;;;;;7.78;1.77;;;;;;;3.09;51.50;98653.31;5057680;28;20236;-68
2023/01/16 10:14:50;;;;;;;5.68;2.83;;;;;;;2.66;52.27;98639.69;5053649;28;20187;-67
2023/01/16 10:17:32;;;;;;;4.00;1.40;;;;;;;2.90;52.32;98636.97;5056934;28;20382;-67
2023/01/16 10:20:35;;;;;;;4.70;1.93;;;;;;;3.19;51.45;98627.91;5055086;28;20062;-67
2023/01/16 10:23:29;;;;;;;3.03;1.02;;;;;;;3.28;50.54;98612.00;5055229;28;20508;-66
2023/01/16 10:26:23;;;;;;;9.77;1.67;;;;;;;3.31;51.22;98614.47;5054690;28;20024;-66
2023/01/16 10:29:00;;;;;;;2.42;0.90;;;;;;;3.17;51.10;98609.91;5058249;28;20104;-66
2023/01/16 10:31:33;;;;;;;1.80;0.95;;;;;;;3.16;51.25;98599.66;5058071;28;20052;-66
2023/01/16 10:34:05;;;;;;;3.67;0.90;;;;;;;3.24;51.12;98592.38;5063156;27;20036;-65
2023/01/16 10:36:40;;;;;;;2.30;0.63;;;;;;;3.11;51.09;98579.22;5060365;28;20036;-66
2023/01/16 10:39:05;;;;;;;1.42;0.50;;;;;;;2.86;51.59;98574.31;5072245;27;20068;-66
2023/01/16 10:50:14;;;;;;;3.38;0.45;;;;;;;3.18;51.03;98544.47;5079230;28;20035;-67
2023/01/16 10:52:41;;;;;;;3.00;0.90;;;;;;;3.03;51.34;98534.84;5064939;28;20081;-67
2023/01/16 10:55:08;;;;;;;1.88;0.40;;;;;;;2.68;52.06;98524.38;5057596;28;20237;-66
2023/01/16 10:57:41;;;;;;;1.38;0.40;;;;;;;2.79;51.67;98515.34;5058865;28;20043;-65
2023/01/16 11:00:16;;;;;;;4.60;0.50;;;;;;;2.68;51.62;98515.81;5059595;28;20427;-65
2023/01/16 11:02:45;;;;;;;2.95;0.60;;;;;;;2.68;51.73;98511.50;5053133;28;20386;-66
2023/01/16 11:05:26;;;;;;;1.17;0.60;;;;;;;2.93;51.38;98497.47;5057883;28;20070;-66
2023/01/16 11:08:02;;;;;;;5.43;0.50;;;;;;;2.65;52.25;98498.75;5044274;28;20048;-66
2023/01/16 11:10:28;;;;;;;1.58;0.38;;;;;;;3.04;51.36;98482.31;5050724;28;20032;-66
2023/01/16 11:18:30;;;;;;;2.92;0.20;;;;;;;2.88;51.24;98466.72;4995285;28;20452;-65
2023/01/16 11:21:13;;;;;;;0.80;0.30;;;;;;;2.62;51.93;98460.19;4986327;28;20037;-65
2023/01/16 11:23:42;;;;;;;1.83;0.35;;;;;;;2.55;52.21;98445.91;5007540;28;20510;-68
2023/01/16 11:26:12;;;;;;;2.47;0.32;;;;;;;2.55;52.65;98438.16;4983396;28;20038;-65
2023/01/16 11:28:38;;;;;;;1.17;0.47;;;;;;;2.67;52.07;98435.03;4989716;28;20037;-66
2023/01/16 11:31:18;;;;;;;2.83;0.88;;;;;;;2.63;52.19;98428.34;4981088;28;20490;-66
2023/01/16 11:33:59;;;;;;;3.65;0.40;;;;;;;2.49;52.64;98420.41;4998452;28;20034;-66
2023/01/16 11:36:26;;;;;;;1.40;0.40;;;;;;;2.57;52.55;98413.16;5000740;28;20138;-66
2023/01/16 11:38:54;;;;;;;3.53;1.20;;;;;;;2.37;53.04;98400.34;5000268;28;20045;-65
2023/01/16 11:41:34;;;;;;;5.47;0.50;;;;;;;2.60;52.56;98402.72;5001351;28;20049;-66
2023/01/16 11:47:05;;;;;;;2.22;0.25;;;;;;;2.35;53.23;98388.38;4997692;28;20121;-66
2023/01/16 11:49:44;;;;;;;2.22;0.20;;;;;;;2.24;53.35;98390.59;5001248;28;20418;-66
2023/01/16 11:52:26;;;;;;;3.10;0.35;;;;;;;2.28;53.51;98368.91;5002260;28;20384;-65
2023/01/16 11:55:04;;;;;;;4.15;0.50;;;;;;;1.84;54.68;98366.63;4978989;28;20148;-67
2023/01/16 11:57:50;;;;;;;3.53;0.38;;;;;;;2.01;54.41;98370.16;4986433;28;20160;-66
2023/01/16 12:00:40;;;;;;;1.35;0.20;;;;;;;2.17;54.48;98360.84;4980919;28;20081;-66
2023/01/16 12:03:26;;;;;;;1.42;0.43;;;;;;;2.07;54.75;98357.03;4980644;28;20402;-66
2023/01/16 12:06:36;;;;;;;3.20;0.35;;;;;;;2.11;55.16;98351.66;4993222;28;20681;-65
2023/01/16 12:09:20;;;;;;;1.83;0.47;;;;;;;1.65;55.99;98340.81;4904618;29;20059;-66
2023/01/16 12:15:50;;;;;;;3.90;0.40;;;;;;;0.95;58.55;98320.59;4993858;28;20561;-66
2023/01/16 12:18:48;;;;;;;1.38;0.40;;;;;;;1.25;57.60;98306.47;4989263;28;20517;-66
2023/01/16 12:21:34;;;;;;;1.33;0.20;;;;;;;1.47;57.50;98298.69;4997472;28;20326;-67
2023/01/16 12:24:18;;;;;;;1.50;0.20;;;;;;;0.87;58.95;98290.06;4993190;28;20193;-66
2023/01/16 12:26:48;;;;;;;0.60;0.40;;;;;;;1.16;57.86;98285.44;4996615;28;20069;-66
2023/01/16 12:29:46;;;;;;;0.93;0.28;;;;;;;1.14;58.12;98276.94;4997973;28;20136;-66
2023/01/16 12:32:27;;;;;;;1.35;0.60;;;;;;;0.77;59.54;98265.63;4993585;28;20033;-67
2023/01/16 12:35:30;;;;;;;1.77;0.60;;;;;;;0.95;58.82;98257.16;5000043;28;20037;-66
2023/01/16 12:37:59;;;;;;;1.58;0.30;;;;;;;1.04;58.77;98250.78;4995129;28;20042;-66
2023/01/16 12:40:49;;;;;;;0.50;0.20;;;;;;;1.04;58.92;98251.63;4983378;28;20037;-66
2023/01/16 12:43:52;;;;;;;0.93;0.30;;;;;;;0.92;59.75;98231.56;4996283;28;20660;-66
2023/01/16 12:46:35;;;;;;;5.20;0.60;;;;;;;0.99;59.54;98227.84;4997817;28;20341;-65
2023/01/16 12:49:45;;;;;;;4.90;0.50;;;;;;;1.11;59.26;98217.00;4999141;28;20049;-67
2023/01/16 12:52:48;;;;;;;3.67;0.75;;;;;;;1.32;58.62;98212.63;4989176;28;20057;-66
2023/01/16 12:55:46;;;;;;;2.55;0.57;;;;;;;1.03;59.25;98198.50;4977517;28;20451;-66
2023/01/16 12:58:16;;;;;;;0.75;0.30;;;;;;;1.24;58.87;98190.75;4995899;28;20514;-66
2023/01/16 13:00:47;;;;;;;4.55;1.05;;;;;;;1.39;58.72;98184.91;4999513;28;20113;-66
2023/01/16 13:03:25;;;;;;;4.07;0.35;;;;;;;1.25;59.26;98179.53;4991052;28;20513;-66